createdAt,value
2023-02-17T00:00:56.790Z,205.23
2023-02-17T00:03:24.858Z,217.40
2023-02-17T00:05:52.672Z,204.38
2023-02-17T00:08:20.296Z,201.95
2023-02-17T00:10:56.666Z,206.10
2023-02-17T00:13:24.308Z,211.35
2023-02-17T00:15:53.548Z,212.95
2023-02-17T00:18:21.374Z,213.43
2023-02-17T00:20:49.034Z,217.40
2023-02-17T00:23:16.694Z,220.90
2023-02-17T00:25:44.721Z,213.80
2023-02-17T00:28:12.486Z,209.68
2023-02-17T00:30:40.190Z,213.75
2023-02-17T00:33:09.158Z,225.90
2023-02-17T00:35:40.802Z,221.07
2023-02-17T00:38:09.764Z,230.95
2023-02-17T00:40:38.817Z,234.93
2023-02-17T00:43:06.710Z,218.13
2023-02-17T00:45:34.766Z,224.70
2023-02-17T00:48:02.434Z,224.38
2023-02-17T00:50:31.449Z,238.65
2023-02-17T00:52:59.128Z,221.10
2023-02-17T00:55:26.931Z,239.23
2023-02-17T00:57:54.600Z,233.82
2023-02-17T01:00:22.752Z,231.63
2023-02-17T01:02:50.642Z,235.35
2023-02-17T01:05:18.440Z,243.93
2023-02-17T01:07:48.845Z,248.05
2023-02-17T01:10:17.049Z,253.13
2023-02-17T01:12:44.769Z,227.07
2023-02-17T01:15:12.671Z,243.30
2023-02-17T01:17:40.462Z,242.05
2023-02-17T01:20:09.185Z,250.75
2023-02-17T01:22:39.102Z,239.52
2023-02-17T01:25:10.106Z,224.90
2023-02-17T01:27:37.937Z,240.25
2023-02-17T01:30:07.008Z,224.88
2023-02-17T01:32:34.721Z,245.82
2023-02-17T01:35:02.393Z,243.98
2023-02-17T01:37:30.053Z,239.77
2023-02-17T01:39:57.664Z,252.45
2023-02-17T01:42:26.823Z,237.90
2023-02-17T01:45:31.186Z,238.32
2023-02-17T01:48:03.797Z,226.20
2023-02-17T01:50:34.714Z,231.43
2023-02-17T01:53:05.285Z,242.55
2023-02-17T01:55:34.868Z,233.45
2023-02-17T01:58:09.955Z,226.10
2023-02-17T02:00:38.207Z,241.27
2023-02-17T02:03:10.035Z,247.32
2023-02-17T02:05:40.584Z,233.20
2023-02-17T02:08:09.627Z,221.55
2023-02-17T02:10:37.276Z,240.38
2023-02-17T02:13:09.116Z,228.45
2023-02-17T02:15:45.459Z,227.93
2023-02-17T02:18:24.727Z,230.75
2023-02-17T02:21:15.576Z,229.75
2023-02-17T02:24:08.477Z,219.80
2023-02-17T02:27:03.139Z,223.35
2023-02-17T02:30:03.620Z,219.52
2023-02-17T02:32:46.664Z,225.07
2023-02-17T02:35:19.450Z,225.88
2023-02-17T02:37:52.977Z,236.80
2023-02-17T02:40:25.292Z,227.35
2023-02-17T02:42:53.800Z,235.98
2023-02-17T02:45:22.814Z,230.98
2023-02-17T02:47:54.080Z,230.45
2023-02-17T02:50:42.497Z,247.82
2023-02-17T02:53:29.020Z,225.45
2023-02-17T02:56:03.761Z,225.30
2023-02-17T02:58:39.407Z,239.45
2023-02-17T03:01:18.962Z,226.48
2023-02-17T03:03:56.116Z,231.68
2023-02-17T03:06:30.737Z,225.57
2023-02-17T03:09:05.145Z,238.45
2023-02-17T03:11:35.612Z,252.38
2023-02-17T03:14:07.005Z,246.98
2023-02-17T03:16:35.477Z,249.05
2023-02-17T03:19:04.841Z,268.42
2023-02-17T03:21:38.077Z,274.33
2023-02-17T03:24:08.129Z,266.20
2023-02-17T03:26:36.021Z,266.83
2023-02-17T03:29:03.928Z,268.80
2023-02-17T03:31:32.370Z,275.65
2023-02-17T03:34:00.807Z,261.17
2023-02-17T03:36:30.129Z,258.73
2023-02-17T03:38:58.189Z,273.88
2023-02-17T03:41:26.183Z,272.55
2023-02-17T03:43:53.849Z,255.40
2023-02-17T03:46:22.340Z,281.50
2023-02-17T03:48:50.171Z,268.88
2023-02-17T03:51:20.451Z,256.63
2023-02-17T03:53:49.900Z,282.38
2023-02-17T03:56:18.565Z,269.23
2023-02-17T03:58:46.616Z,279.13
2023-02-17T04:01:14.944Z,286.30
2023-02-17T04:03:43.159Z,272.92
2023-02-17T04:06:12.186Z,274.55
2023-02-17T04:08:40.692Z,290.27
2023-02-17T04:11:10.814Z,277.95
2023-02-17T04:13:39.954Z,267.73
2023-02-17T04:16:09.294Z,266.00
2023-02-17T04:18:37.743Z,279.98
2023-02-17T04:21:06.282Z,265.55
2023-02-17T04:23:35.392Z,268.13
2023-02-17T04:26:03.249Z,283.25
2023-02-17T04:28:32.448Z,274.45
2023-02-17T04:31:00.821Z,280.33
2023-02-17T04:33:28.683Z,251.88
2023-02-17T04:35:59.572Z,277.25
2023-02-17T04:38:28.284Z,263.83
2023-02-17T04:40:57.099Z,267.73
2023-02-17T04:43:25.976Z,274.00
2023-02-17T04:45:55.214Z,279.92
2023-02-17T04:48:23.454Z,264.50
2023-02-17T04:50:51.191Z,269.77
2023-02-17T04:53:18.971Z,266.05
2023-02-17T04:55:49.389Z,270.15
2023-02-17T04:58:17.187Z,256.58
2023-02-17T05:00:44.918Z,256.73
2023-02-17T05:03:13.964Z,275.02
2023-02-17T05:05:41.622Z,261.65
2023-02-17T05:08:09.482Z,256.38
2023-02-17T05:10:37.218Z,279.00
2023-02-17T05:13:04.935Z,268.55
2023-02-17T05:15:34.789Z,270.27
2023-02-17T05:18:02.992Z,257.33
2023-02-17T05:20:32.078Z,250.68
2023-02-17T05:22:59.743Z,249.73
2023-02-17T05:25:27.431Z,277.38
2023-02-17T05:27:55.270Z,286.65
2023-02-17T05:30:23.212Z,254.10
2023-02-17T05:32:50.867Z,255.63
2023-02-17T05:35:18.755Z,270.88
2023-02-17T05:37:47.756Z,267.23
2023-02-17T05:40:15.456Z,264.30
2023-02-17T05:42:43.078Z,255.18
2023-02-17T05:45:11.324Z,267.42
2023-02-17T05:47:38.968Z,250.23
2023-02-17T05:50:08.003Z,261.05
2023-02-17T05:52:35.658Z,244.75
2023-02-17T05:55:05.155Z,266.17
2023-02-17T05:57:33.342Z,242.45
2023-02-17T06:00:01.065Z,246.43
2023-02-17T06:02:28.798Z,248.15
2023-02-17T06:04:56.470Z,248.65
2023-02-17T06:07:24.181Z,254.73
2023-02-17T06:09:51.814Z,243.60
2023-02-17T06:12:20.896Z,244.13
2023-02-17T06:14:48.557Z,260.35
2023-02-17T06:17:16.368Z,240.80
2023-02-17T06:19:44.025Z,246.88
2023-02-17T06:22:11.802Z,261.75
2023-02-17T06:24:39.572Z,249.68
2023-02-17T06:27:07.430Z,239.45
2023-02-17T06:29:36.476Z,261.30
2023-02-17T06:32:04.555Z,243.10
2023-02-17T06:34:32.437Z,258.08
2023-02-17T06:37:00.142Z,268.77
2023-02-17T06:39:28.132Z,270.85
2023-02-17T06:41:55.782Z,250.32
2023-02-17T06:44:23.581Z,268.42
2023-02-17T06:46:52.641Z,269.88
2023-02-17T06:49:20.463Z,274.00
2023-02-17T06:51:48.088Z,277.27
2023-02-17T06:54:16.809Z,264.55
2023-02-17T06:56:44.694Z,288.90
2023-02-17T06:59:12.398Z,281.55
2023-02-17T07:01:40.149Z,282.67
2023-02-17T07:04:09.822Z,277.02
2023-02-17T07:06:37.552Z,271.90
2023-02-17T07:09:05.234Z,277.20
2023-02-17T07:11:33.033Z,289.50
2023-02-17T07:14:01.362Z,285.80
2023-02-17T07:16:29.237Z,281.83
2023-02-17T07:18:57.177Z,258.67
2023-02-17T07:21:26.392Z,282.88
2023-02-17T07:23:54.215Z,271.70
2023-02-17T07:26:22.072Z,268.08
2023-02-17T07:28:49.765Z,260.45
2023-02-17T07:31:18.608Z,268.63
2023-02-17T07:33:48.035Z,259.95
2023-02-17T07:36:18.050Z,258.55
2023-02-17T07:38:47.175Z,258.00
2023-02-17T07:41:16.861Z,256.02
2023-02-17T07:43:45.329Z,248.15
2023-02-17T07:46:13.832Z,253.68
2023-02-17T07:48:41.842Z,258.73
2023-02-17T07:51:11.186Z,251.97
2023-02-17T07:53:39.358Z,247.98
2023-02-17T07:56:10.850Z,248.63
2023-02-17T07:58:40.717Z,239.23
2023-02-17T08:01:08.737Z,248.93
2023-02-17T08:03:36.512Z,241.20
2023-02-17T08:06:04.834Z,235.33
2023-02-17T08:08:50.486Z,244.13
2023-02-17T08:11:37.347Z,242.07
2023-02-17T08:14:05.179Z,213.05
2023-02-17T08:16:32.874Z,232.50
2023-02-17T08:19:00.589Z,236.83
2023-02-17T08:21:28.875Z,230.18
2023-02-17T08:23:56.793Z,219.60
2023-02-17T08:26:26.498Z,233.80
2023-02-17T08:28:54.167Z,215.10
2023-02-17T08:31:24.961Z,219.68
2023-02-17T08:33:53.566Z,228.45
2023-02-17T08:36:22.290Z,236.50
2023-02-17T08:38:51.156Z,243.93
2023-02-17T08:41:22.241Z,242.45
2023-02-17T08:43:51.950Z,222.98
2023-02-17T08:46:20.729Z,251.23
2023-02-17T08:48:49.418Z,236.70
2023-02-17T08:51:23.491Z,236.52
2023-02-17T08:53:51.751Z,244.55
2023-02-17T08:56:19.430Z,232.57
2023-02-17T08:58:47.403Z,253.38
2023-02-17T09:01:18.385Z,236.60
2023-02-17T09:03:47.486Z,230.07
2023-02-17T09:06:16.154Z,238.60
2023-02-17T09:08:44.924Z,241.02
2023-02-17T09:11:15.343Z,245.27
2023-02-17T09:13:43.162Z,235.20
2023-02-17T09:16:11.323Z,234.77
2023-02-17T09:18:40.413Z,242.32
2023-02-17T09:21:09.342Z,242.02
2023-02-17T09:23:37.497Z,224.40
2023-02-17T09:26:06.604Z,248.95
2023-02-17T09:28:34.969Z,249.13
2023-02-17T09:31:09.768Z,254.48
2023-02-17T09:33:37.590Z,254.25
2023-02-17T09:36:08.780Z,243.77
2023-02-17T09:38:38.269Z,226.10
2023-02-17T09:41:16.859Z,253.45
2023-02-17T09:43:44.810Z,236.45
2023-02-17T09:46:16.503Z,248.80
2023-02-17T09:48:46.551Z,268.70
2023-02-17T09:51:22.687Z,252.55
2023-02-17T09:53:57.742Z,230.27
2023-02-17T09:56:33.495Z,263.13
2023-02-17T09:59:07.173Z,257.30
2023-02-17T10:01:36.510Z,267.45
2023-02-17T10:04:09.504Z,275.02
2023-02-17T10:06:41.112Z,261.95
2023-02-17T10:09:13.646Z,260.27
2023-02-17T10:11:46.728Z,261.33
2023-02-17T10:14:20.036Z,269.88
2023-02-17T10:16:52.652Z,246.88
2023-02-17T10:19:26.297Z,265.95
2023-02-17T10:22:02.912Z,249.02
2023-02-17T10:24:30.824Z,271.45
2023-02-17T10:27:15.471Z,274.33
2023-02-17T10:29:52.584Z,242.98
2023-02-17T10:32:24.249Z,273.75
2023-02-17T10:35:05.832Z,252.98
2023-02-17T10:37:42.167Z,248.23
2023-02-17T10:40:15.731Z,256.20
2023-02-17T10:42:43.535Z,273.17
2023-02-17T10:45:20.591Z,264.70
2023-02-17T10:47:48.584Z,277.70
2023-02-17T10:50:21.220Z,261.92
2023-02-17T10:52:51.212Z,258.08
2023-02-17T10:55:24.078Z,259.17
2023-02-17T10:58:05.612Z,256.48
2023-02-17T11:00:33.805Z,268.60
2023-02-17T11:03:01.838Z,264.80
2023-02-17T11:05:32.270Z,267.90
2023-02-17T11:08:04.124Z,276.13
2023-02-17T11:10:35.789Z,264.30
2023-02-17T11:13:06.169Z,269.92
2023-02-17T11:15:44.479Z,268.02
2023-02-17T11:18:19.376Z,274.33
2023-02-17T11:20:47.947Z,267.17
2023-02-17T11:23:25.215Z,289.58
2023-02-17T11:25:59.110Z,264.35
2023-02-17T11:28:27.381Z,280.90
2023-02-17T11:30:57.841Z,281.77
2023-02-17T11:33:36.418Z,271.33
2023-02-17T11:36:06.742Z,275.30
2023-02-17T11:38:46.237Z,266.60
2023-02-17T11:41:14.268Z,291.75
2023-02-17T11:43:52.925Z,284.00
2023-02-17T11:46:34.786Z,287.40
2023-02-17T11:49:25.822Z,263.10
2023-02-17T11:52:05.893Z,286.30
2023-02-17T11:54:44.872Z,278.75
2023-02-17T11:57:25.749Z,278.80
2023-02-17T12:00:15.316Z,280.80
2023-02-17T12:03:02.547Z,257.08
2023-02-17T12:05:40.634Z,266.30
2023-02-17T12:08:20.975Z,277.05
2023-02-17T12:11:05.773Z,271.77
2023-02-17T12:13:47.997Z,257.05
2023-02-17T12:16:46.989Z,280.30
2023-02-17T12:19:32.775Z,264.23
2023-02-17T12:22:10.186Z,277.83
2023-02-17T12:24:52.700Z,273.98
2023-02-17T12:27:33.132Z,303.98
2023-02-17T12:30:15.629Z,277.85
2023-02-17T12:33:04.508Z,289.35
2023-02-17T12:35:40.182Z,276.17
2023-02-17T12:38:15.302Z,268.88
2023-02-17T12:40:48.208Z,265.95
2023-02-17T12:43:26.312Z,290.55
2023-02-17T12:45:57.286Z,280.38
2023-02-17T12:48:32.239Z,286.58
2023-02-17T12:51:06.888Z,293.40
2023-02-17T12:53:43.187Z,279.42
2023-02-17T12:56:38.154Z,292.13
2023-02-17T12:59:15.411Z,285.42
2023-02-17T13:01:51.744Z,300.25
2023-02-17T13:04:21.309Z,271.58
2023-02-17T13:06:54.987Z,271.02
2023-02-17T13:09:31.326Z,306.95
2023-02-17T13:12:19.798Z,290.40
2023-02-17T13:14:50.727Z,305.65
2023-02-17T13:17:26.723Z,290.80
2023-02-17T13:20:29.066Z,299.15
2023-02-17T13:23:08.245Z,272.83
2023-02-17T13:25:37.851Z,303.60
2023-02-17T13:28:34.104Z,289.02
2023-02-17T13:31:13.121Z,302.80
2023-02-17T13:33:44.519Z,286.50
2023-02-17T13:36:22.463Z,316.88
2023-02-17T13:38:56.654Z,298.58
2023-02-17T13:41:24.394Z,302.55
2023-02-17T13:43:52.030Z,317.20
2023-02-17T13:46:25.108Z,334.70
2023-02-17T13:49:04.331Z,340.92
2023-02-17T13:51:33.766Z,294.60
2023-02-17T13:54:09.496Z,309.35
2023-02-17T13:56:37.185Z,325.02
2023-02-17T13:59:09.551Z,317.40
2023-02-17T14:01:42.458Z,317.95
2023-02-17T14:04:21.664Z,323.38
2023-02-17T14:06:50.221Z,307.23
2023-02-17T14:09:23.698Z,301.77
2023-02-17T14:11:52.259Z,295.08
2023-02-17T14:14:20.282Z,307.75
2023-02-17T14:16:58.691Z,278.17
2023-02-17T14:19:26.433Z,305.55
2023-02-17T14:22:04.013Z,300.67
2023-02-17T14:24:33.374Z,291.70
2023-02-17T14:27:03.181Z,282.88
2023-02-17T14:29:42.966Z,302.17
2023-02-17T14:32:30.916Z,284.45
2023-02-17T14:35:22.443Z,290.52
2023-02-17T14:37:50.516Z,257.08
2023-02-17T14:40:20.383Z,280.20
2023-02-17T14:42:48.534Z,300.88
2023-02-17T14:45:17.900Z,274.25
2023-02-17T14:47:47.392Z,290.92
2023-02-17T14:50:17.287Z,295.92
2023-02-17T14:52:46.918Z,280.83
2023-02-17T14:55:19.712Z,293.27
2023-02-17T14:57:47.441Z,298.83
2023-02-17T15:00:16.353Z,291.33
2023-02-17T15:02:44.067Z,294.75
2023-02-17T15:05:13.156Z,291.02
2023-02-17T15:07:42.235Z,299.58
2023-02-17T15:10:18.980Z,279.40
2023-02-17T15:12:46.816Z,254.35
2023-02-17T15:15:16.079Z,268.05
2023-02-17T15:17:43.912Z,302.50
2023-02-17T15:20:15.369Z,290.73
2023-02-17T15:22:44.397Z,279.35
2023-02-17T15:25:16.958Z,290.10
2023-02-17T15:27:45.289Z,307.60
2023-02-17T15:30:15.879Z,301.00
2023-02-17T15:32:44.447Z,299.92
2023-02-17T15:35:22.571Z,292.08
2023-02-17T15:37:51.006Z,273.83
2023-02-17T15:40:21.128Z,291.48
2023-02-17T15:42:54.417Z,295.27
2023-02-17T15:45:23.929Z,275.85
2023-02-17T15:47:53.415Z,282.65
2023-02-17T15:50:23.804Z,283.15
2023-02-17T15:52:51.936Z,284.95
2023-02-17T15:55:20.365Z,282.85
2023-02-17T15:57:49.766Z,287.52
2023-02-17T16:00:20.638Z,286.00
2023-02-17T16:02:48.443Z,287.00
2023-02-17T16:05:18.474Z,278.17
2023-02-17T16:07:48.033Z,280.42
2023-02-17T16:10:18.026Z,271.20
2023-02-17T16:12:46.870Z,285.35
2023-02-17T16:15:17.782Z,294.55
2023-02-17T16:17:46.342Z,288.40
2023-02-17T16:20:17.694Z,278.45
2023-02-17T16:22:47.710Z,290.10
2023-02-17T16:25:17.286Z,284.02
2023-02-17T16:27:47.024Z,285.92
2023-02-17T16:30:19.624Z,276.38
2023-02-17T16:32:48.032Z,291.13
2023-02-17T16:35:16.842Z,283.52
2023-02-17T16:37:53.755Z,279.20
2023-02-17T16:40:23.850Z,280.10
2023-02-17T16:42:51.949Z,276.20
2023-02-17T16:45:22.039Z,281.00
2023-02-17T16:47:51.581Z,284.73
2023-02-17T16:50:24.792Z,264.15
2023-02-17T16:52:55.325Z,279.95
2023-02-17T16:55:24.721Z,288.50
2023-02-17T16:57:52.489Z,287.80
2023-02-17T17:00:22.544Z,291.88
2023-02-17T17:02:51.037Z,263.50
2023-02-17T17:05:20.250Z,307.52
2023-02-17T17:07:48.968Z,281.30
2023-02-17T17:10:22.664Z,282.02
2023-02-17T17:12:50.633Z,279.02
2023-02-17T17:15:19.368Z,288.52
2023-02-17T17:17:49.555Z,286.80
2023-02-17T17:20:18.940Z,304.45
2023-02-17T17:22:49.215Z,300.08
2023-02-17T17:25:18.599Z,264.13
2023-02-17T17:27:46.598Z,296.70
2023-02-17T17:30:18.677Z,289.00
2023-02-17T17:32:46.688Z,294.23
2023-02-17T17:35:14.645Z,283.08
2023-02-17T17:37:42.465Z,298.48
2023-02-17T17:40:16.912Z,299.63
2023-02-17T17:42:46.257Z,269.98
2023-02-17T17:45:15.099Z,295.33
2023-02-17T17:47:43.164Z,304.73
2023-02-17T17:50:17.169Z,269.13
2023-02-17T17:52:45.138Z,287.73
2023-02-17T17:55:13.290Z,274.55
2023-02-17T17:57:41.319Z,276.90
2023-02-17T18:00:13.052Z,289.38
2023-02-17T18:02:43.681Z,290.48
2023-02-17T18:05:12.292Z,274.05
2023-02-17T18:07:41.464Z,273.80
2023-02-17T18:10:10.914Z,278.50
2023-02-17T18:12:39.778Z,304.77
2023-02-17T18:15:10.266Z,294.20
2023-02-17T18:17:39.897Z,283.45
2023-02-17T18:20:12.083Z,276.10
2023-02-17T18:22:39.841Z,267.75
2023-02-17T18:25:08.212Z,286.98
2023-02-17T18:27:41.411Z,288.85
2023-02-17T18:30:12.430Z,285.48
2023-02-17T18:32:40.506Z,293.35
2023-02-17T18:35:09.183Z,280.35
2023-02-17T18:37:37.030Z,271.02
2023-02-17T18:40:05.529Z,297.13
2023-02-17T18:42:33.986Z,289.15
2023-02-17T18:45:01.864Z,287.30
2023-02-17T18:47:30.921Z,296.77
2023-02-17T18:49:58.951Z,281.73
2023-02-17T18:52:26.794Z,279.30
2023-02-17T18:54:54.505Z,271.50
2023-02-17T18:57:22.212Z,278.15
2023-02-17T18:59:50.361Z,279.52
2023-02-17T19:02:18.375Z,313.40
2023-02-17T19:04:47.441Z,276.80
2023-02-17T19:07:15.137Z,280.20
2023-02-17T19:09:43.241Z,286.42
2023-02-17T19:12:13.450Z,282.45
2023-02-17T19:14:41.997Z,289.25
2023-02-17T19:17:10.679Z,302.70
2023-02-17T19:19:38.622Z,282.42
2023-02-17T19:22:09.497Z,307.60
2023-02-17T19:24:37.476Z,294.30
2023-02-17T19:27:05.772Z,280.75
2023-02-17T19:29:34.115Z,277.25
2023-02-17T19:32:03.354Z,283.52
2023-02-17T19:34:32.125Z,294.08
2023-02-17T19:36:59.804Z,282.85
2023-02-17T19:39:28.906Z,293.55
2023-02-17T19:41:56.585Z,276.33
2023-02-17T19:44:24.314Z,285.40
2023-02-17T19:46:51.989Z,283.30
2023-02-17T19:49:19.760Z,297.65
2023-02-17T19:51:47.689Z,288.02
2023-02-17T19:54:15.377Z,292.35
2023-02-17T19:56:44.509Z,291.30
2023-02-17T19:59:12.181Z,305.90
2023-02-17T20:01:42.355Z,297.20
2023-02-17T20:04:11.413Z,279.80
2023-02-17T20:06:41.559Z,283.13
2023-02-17T20:09:11.623Z,278.63
2023-02-17T20:11:39.384Z,278.42
2023-02-17T20:14:08.528Z,291.83
2023-02-17T20:16:36.426Z,278.88
2023-02-17T20:19:05.990Z,287.90
2023-02-17T20:21:35.849Z,275.42
2023-02-17T20:24:03.740Z,287.85
2023-02-17T20:26:34.213Z,281.25
2023-02-17T20:29:03.085Z,282.02
2023-02-17T20:31:32.416Z,282.52
2023-02-17T20:34:00.549Z,297.20
2023-02-17T20:36:28.376Z,271.00
2023-02-17T20:38:56.065Z,283.33
2023-02-17T20:41:24.554Z,282.73
2023-02-17T20:43:53.350Z,276.33
2023-02-17T20:46:24.592Z,277.67
2023-02-17T20:48:54.583Z,275.48
2023-02-17T20:51:22.717Z,274.02
2023-02-17T20:53:51.072Z,289.73
2023-02-17T20:56:20.923Z,287.00
2023-02-17T20:58:48.668Z,285.63
2023-02-17T21:01:16.587Z,295.52
2023-02-17T21:03:44.423Z,280.60
2023-02-17T21:06:21.676Z,275.20
2023-02-17T21:08:51.516Z,269.48
2023-02-17T21:11:19.327Z,280.70
2023-02-17T21:13:47.634Z,305.48
2023-02-17T21:16:17.431Z,306.58
2023-02-17T21:18:46.994Z,297.88
2023-02-17T21:21:15.395Z,274.38
2023-02-17T21:23:44.668Z,291.60
2023-02-17T21:26:13.794Z,259.70
2023-02-17T21:28:41.526Z,296.98
2023-02-17T21:31:09.959Z,281.70
2023-02-17T21:33:41.694Z,271.48
2023-02-17T21:36:10.646Z,293.60
2023-02-17T21:38:38.567Z,275.10
2023-02-17T21:41:11.141Z,285.50
2023-02-17T21:43:57.053Z,291.27
2023-02-17T21:46:25.987Z,274.42
2023-02-17T21:48:54.126Z,295.50
2023-02-17T21:51:21.854Z,272.73
2023-02-17T21:53:49.858Z,291.25
2023-02-17T21:56:19.463Z,291.55
2023-02-17T21:58:47.518Z,294.45
2023-02-17T22:01:15.274Z,285.83
2023-02-17T22:03:43.161Z,298.73
2023-02-17T22:06:15.856Z,292.20
2023-02-17T22:08:43.540Z,298.10
2023-02-17T22:11:15.875Z,274.85
2023-02-17T22:13:45.074Z,282.42
2023-02-17T22:16:13.118Z,294.23
2023-02-17T22:18:41.600Z,286.73
2023-02-17T22:21:10.731Z,289.00
2023-02-17T22:23:38.504Z,292.90
2023-02-17T22:26:08.549Z,296.38
2023-02-17T22:28:36.315Z,291.85
2023-02-17T22:31:05.830Z,286.38
2023-02-17T22:33:34.056Z,287.50
2023-02-17T22:36:03.921Z,275.52
2023-02-17T22:38:32.167Z,264.38
2023-02-17T22:40:59.926Z,278.80
2023-02-17T22:43:27.600Z,280.90
2023-02-17T22:45:59.399Z,283.85
2023-02-17T22:48:29.261Z,274.88
2023-02-17T22:50:57.297Z,275.58
2023-02-17T22:53:25.246Z,289.40
2023-02-17T22:55:53.834Z,281.63
2023-02-17T22:58:21.972Z,281.88
2023-02-17T23:00:50.189Z,285.75
2023-02-17T23:03:18.712Z,293.27
2023-02-17T23:05:47.792Z,274.45
2023-02-17T23:08:15.469Z,300.58
2023-02-17T23:10:43.923Z,287.17
2023-02-17T23:13:11.688Z,270.60
2023-02-17T23:15:40.615Z,260.15
2023-02-17T23:18:09.655Z,268.88
2023-02-17T23:20:40.111Z,283.52
2023-02-17T23:23:09.611Z,274.63
2023-02-17T23:25:39.911Z,294.42
2023-02-17T23:28:07.813Z,292.58
2023-02-17T23:30:36.000Z,288.05
2023-02-17T23:33:03.901Z,286.13
2023-02-17T23:35:31.642Z,268.35
2023-02-17T23:38:00.700Z,287.27
2023-02-17T23:40:29.713Z,286.50
2023-02-17T23:42:57.827Z,281.02
2023-02-17T23:45:25.617Z,283.08
2023-02-17T23:47:53.249Z,279.23
2023-02-17T23:50:21.141Z,263.77
2023-02-17T23:52:48.823Z,267.75
2023-02-17T23:55:16.788Z,268.42
2023-02-17T23:57:45.816Z,272.52
